Time;durP1;ratioP1;P1;durP2;ratioP2;P2;SDS_P1;SDS_P2;PMS_P1;PMS_P2;Temp;Humidity;BMP_temperature;BMP_pressure;BME280_temperature;BME280_humidity;BME280_pressure;Samples;Min_cycle;Max_cycle;Signal;HPM_P1;HPM_P2
2022/03/13 02:51:52;;;;;;;16.70;10.60;;;;;;;6.13;42.21;98726.06;7048745;28;20185;-84
2022/03/13 07:21:33;;;;;;;10.17;8.50;;;;;;;9.45;34.30;98816.84;6761986;29;20262;-85
2022/03/13 07:24:54;;;;;;;9.23;8.23;;;;;;;9.83;34.30;98820.78;6759078;29;20724;-79
2022/03/13 07:28:16;;;;;;;11.20;8.80;;;;;;;9.79;34.40;98814.97;6821173;29;20620;-83
2022/03/13 07:31:38;;;;;;;12.00;8.13;;;;;;;10.06;33.66;98815.94;6873465;28;20269;-79
2022/03/13 07:34:59;;;;;;;10.73;8.50;;;;;;;10.18;33.92;98808.94;6910800;28;20285;-76
2022/03/13 07:38:22;;;;;;;10.40;8.23;;;;;;;10.96;32.62;98796.41;6909786;28;20291;-79
2022/03/13 07:41:44;;;;;;;10.20;7.67;;;;;;;11.81;31.47;98809.81;6893278;28;20707;-75
2022/03/13 07:45:06;;;;;;;10.73;6.97;;;;;;;11.55;27.22;98769.34;6905547;28;20265;-76
2022/03/13 07:48:29;;;;;;;9.37;7.57;;;;;;;11.90;27.11;98805.81;7008972;28;20204;-77
2022/03/13 07:51:51;;;;;;;9.23;6.70;;;;;;;13.05;26.21;98788.31;7023346;28;20241;-76
2022/03/13 07:55:15;;;;;;;9.83;7.40;;;;;;;13.29;25.25;98796.41;7021616;28;20222;-75
2022/03/13 07:58:36;;;;;;;9.17;6.90;;;;;;;13.41;25.08;98782.97;7022084;28;20195;-76
2022/03/13 08:01:58;;;;;;;8.17;6.70;;;;;;;12.81;26.25;98789.91;7007366;28;20246;-76
2022/03/13 08:05:21;;;;;;;8.23;6.90;;;;;;;13.49;24.97;98769.13;6996543;28;20224;-77
2022/03/13 08:08:43;;;;;;;9.23;7.33;;;;;;;14.31;24.19;98782.97;6995987;28;20724;-77
2022/03/13 08:12:07;;;;;;;10.53;7.70;;;;;;;14.25;23.64;98790.16;7014729;28;20595;-77
2022/03/13 08:15:29;;;;;;;11.70;7.40;;;;;;;14.06;24.03;98791.22;7023426;28;20307;-77
2022/03/13 08:18:51;;;;;;;10.10;7.67;;;;;;;14.27;24.37;98798.88;7022344;28;20205;-76
2022/03/13 08:22:12;;;;;;;9.07;7.40;;;;;;;14.14;24.29;98792.78;7005612;28;20194;-76
2022/03/13 08:25:34;;;;;;;11.43;8.20;;;;;;;14.04;23.98;98792.50;6995017;28;20752;-76
2022/03/13 08:28:57;;;;;;;15.73;7.77;;;;;;;13.82;24.37;98794.00;6995166;28;20213;-76
2022/03/13 08:32:19;;;;;;;11.50;7.70;;;;;;;14.21;24.61;98790.84;7013381;28;20314;-76
2022/03/13 08:35:40;;;;;;;10.00;8.03;;;;;;;13.90;24.72;98780.13;7006687;28;20694;-77
2022/03/13 08:39:02;;;;;;;11.03;7.70;;;;;;;14.27;24.79;98789.94;7025967;28;20205;-77
2022/03/13 08:42:24;;;;;;;10.77;7.47;;;;;;;14.28;23.87;98765.28;7026176;28;20242;-77
2022/03/13 08:45:47;;;;;;;9.87;7.37;;;;;;;15.29;23.79;98777.66;7023165;28;20233;-76
2022/03/13 08:49:09;;;;;;;14.30;9.00;;;;;;;15.65;23.27;98790.22;7023018;28;20634;-76
2022/03/13 08:52:31;;;;;;;11.07;8.40;;;;;;;16.46;22.08;98785.47;7022324;28;20828;-76
2022/03/13 08:55:52;;;;;;;10.73;8.63;;;;;;;16.00;22.47;98791.00;7022041;28;20648;-77
2022/03/13 08:59:15;;;;;;;11.40;8.00;;;;;;;15.67;22.83;98780.78;7014960;28;20752;-76
2022/03/13 09:02:38;;;;;;;9.17;7.80;;;;;;;15.23;24.04;98772.38;6996807;28;20239;-76
2022/03/13 09:06:00;;;;;;;11.57;7.60;;;;;;;14.74;24.91;98783.63;7030318;28;20258;-77
2022/03/13 09:09:22;;;;;;;9.33;7.53;;;;;;;15.77;24.37;98783.72;7029328;28;20711;-77
2022/03/13 09:12:44;;;;;;;9.33;7.87;;;;;;;14.82;24.07;98770.53;7010140;28;20217;-76
2022/03/13 09:16:06;;;;;;;9.80;8.20;;;;;;;15.64;24.40;98775.81;7027864;28;20204;-77
2022/03/13 09:19:29;;;;;;;14.17;7.43;;;;;;;16.06;23.79;98763.69;7028461;28;20198;-77
2022/03/13 09:22:51;;;;;;;9.47;7.50;;;;;;;16.01;24.46;98760.03;7026639;28;20205;-77
2022/03/13 09:26:13;;;;;;;13.30;8.37;;;;;;;15.82;23.83;98761.25;7005615;28;20286;-77
2022/03/13 09:29:34;;;;;;;8.77;7.67;;;;;;;15.65;24.82;98772.03;7006882;28;20285;-77
2022/03/13 09:32:56;;;;;;;9.33;7.87;;;;;;;14.44;25.79;98758.38;7004470;28;20283;-77
2022/03/13 09:36:19;;;;;;;9.97;7.43;;;;;;;15.50;24.92;98766.25;7030111;28;20235;-76
2022/03/13 09:39:40;;;;;;;12.33;8.87;;;;;;;15.89;24.69;98768.22;7032846;28;20208;-77
2022/03/13 09:43:05;;;;;;;10.43;8.47;;;;;;;15.78;24.36;98758.19;7033524;28;20221;-77
2022/03/13 09:46:26;;;;;;;11.13;8.60;;;;;;;16.41;23.81;98753.53;7005068;28;20208;-77
2022/03/13 09:49:50;;;;;;;11.40;8.10;;;;;;;15.55;24.57;98741.91;7005444;28;20225;-76
2022/03/13 09:53:14;;;;;;;11.37;8.83;;;;;;;16.34;23.93;98733.75;7018567;28;20233;-77
2022/03/13 09:56:38;;;;;;;14.50;9.13;;;;;;;17.62;22.82;98743.59;6998047;28;20344;-77
2022/03/13 10:00:00;;;;;;;11.10;8.73;;;;;;;16.07;24.15;98735.41;7004175;28;20237;-76
2022/03/13 10:03:21;;;;;;;11.23;8.73;;;;;;;15.28;24.83;98734.47;7025535;28;20430;-77
2022/03/13 10:07:06;;;;;;;15.03;9.37;;;;;;;16.93;23.98;98740.59;7026168;28;20201;-77
2022/03/13 10:10:31;;;;;;;13.60;9.47;;;;;;;17.43;23.07;98725.88;7004823;28;20764;-77
2022/03/13 10:13:52;;;;;;;12.37;9.27;;;;;;;17.96;22.28;98719.75;6997356;28;20234;-76
2022/03/13 10:17:26;;;;;;;12.83;8.90;;;;;;;18.50;21.96;98714.13;7023506;28;20197;-77
2022/03/13 10:20:49;;;;;;;14.27;9.57;;;;;;;18.01;22.28;98720.66;6998419;28;20192;-77
2022/03/13 10:24:14;;;;;;;12.07;9.83;;;;;;;18.51;22.21;98714.97;6997194;28;20220;-77
2022/03/13 10:27:37;;;;;;;12.70;9.97;;;;;;;18.69;21.83;98709.94;7005890;28;20189;-77
2022/03/13 10:31:15;;;;;;;14.53;10.30;;;;;;;18.13;23.14;98715.91;7025019;28;20733;-77
2022/03/13 10:34:37;;;;;;;15.87;10.90;;;;;;;19.01;22.15;98707.22;7008330;28;20228;-77
2022/03/13 10:37:59;;;;;;;13.60;10.50;;;;;;;20.15;21.07;98701.66;7025094;28;20204;-77
2022/03/13 10:41:21;;;;;;;15.30;12.00;;;;;;;19.43;21.03;98700.75;7025101;28;20283;-77
2022/03/13 10:44:46;;;;;;;16.40;12.67;;;;;;;18.90;21.55;98695.41;7024218;28;20318;-77
2022/03/13 10:48:20;;;;;;;17.70;12.90;;;;;;;19.77;22.19;98702.03;7024492;28;20215;-77
2022/03/13 10:51:46;;;;;;;17.77;13.00;;;;;;;19.29;21.74;98687.78;7008618;28;20191;-77
2022/03/13 10:55:19;;;;;;;17.07;12.87;;;;;;;19.50;21.49;98692.28;7023280;28;20231;-77
2022/03/13 10:58:42;;;;;;;16.93;13.20;;;;;;;19.81;21.51;98688.63;6996706;28;20193;-77
2022/03/13 11:02:15;;;;;;;18.10;13.60;;;;;;;19.55;21.81;98689.56;6995748;28;20200;-77
2022/03/13 11:05:37;;;;;;;18.40;13.53;;;;;;;19.17;22.26;98676.19;7017193;28;20356;-77
2022/03/13 11:08:59;;;;;;;17.80;14.50;;;;;;;19.85;21.79;98678.78;7043771;28;20647;-77
2022/03/13 11:12:21;;;;;;;22.33;16.43;;;;;;;20.41;20.90;98672.44;7052431;28;20738;-77
2022/03/13 11:15:45;;;;;;;22.10;17.00;;;;;;;19.98;21.80;98668.16;7029718;28;20222;-76
2022/03/13 11:19:08;;;;;;;22.27;16.80;;;;;;;20.04;22.13;98682.72;7008149;28;20205;-77
2022/03/13 11:22:31;;;;;;;20.43;16.43;;;;;;;20.71;21.03;98667.81;7000022;28;20210;-77
2022/03/13 11:25:55;;;;;;;19.63;16.37;;;;;;;19.12;22.38;98666.06;7012020;28;20221;-76
2022/03/13 11:29:16;;;;;;;24.10;19.47;;;;;;;20.39;22.37;98661.75;7013520;28;20318;-78
2022/03/13 11:32:42;;;;;;;66.63;53.77;;;;;;;21.41;22.18;98660.38;6996952;28;20222;-80
2022/03/13 11:36:29;;;;;;;25.93;17.37;;;;;;;20.01;21.64;98653.97;6998100;28;20197;-78
2022/03/13 11:40:00;;;;;;;24.33;17.20;;;;;;;21.69;20.31;98642.47;7009446;28;20210;-78
2022/03/13 11:43:22;;;;;;;22.83;17.93;;;;;;;20.25;21.87;98657.88;7000128;28;20309;-79
2022/03/13 11:46:45;;;;;;;22.23;17.27;;;;;;;20.30;20.93;98619.56;6998203;28;20699;-78
2022/03/13 11:50:09;;;;;;;21.70;16.57;;;;;;;21.87;20.13;98639.94;7005911;28;20644;-78
2022/03/13 11:53:44;;;;;;;21.43;16.30;;;;;;;22.70;18.93;98638.91;7026205;28;20276;-78
2022/03/13 11:57:13;;;;;;;19.67;16.03;;;;;;;21.38;20.10;98613.47;7005060;28;20201;-78
2022/03/13 12:00:35;;;;;;;25.03;16.17;;;;;;;21.88;19.87;98627.00;6998907;28;20698;-78
2022/03/13 12:04:26;;;;;;;18.67;15.40;;;;;;;21.97;19.64;98617.94;7020387;28;20224;-77
2022/03/13 12:07:53;;;;;;;18.73;15.70;;;;;;;21.80;19.34;98583.69;6990884;28;20283;-78
2022/03/13 12:11:38;;;;;;;21.53;15.80;;;;;;;20.54;21.27;98612.47;7005839;28;20218;-77
2022/03/13 12:15:02;;;;;;;22.07;15.43;;;;;;;21.85;19.94;98606.47;7020470;28;20681;-77
2022/03/13 12:18:27;;;;;;;21.83;17.23;;;;;;;22.21;19.06;98602.41;7019813;28;20259;-79
2022/03/13 12:21:49;;;;;;;19.87;15.67;;;;;;;22.51;19.05;98604.97;7011116;28;20206;-76
2022/03/13 12:25:12;;;;;;;25.50;16.03;;;;;;;21.75;19.48;98603.75;7022635;28;20281;-78
2022/03/13 12:28:36;;;;;;;21.73;16.90;;;;;;;21.31;19.93;98605.53;7015846;28;20209;-78
2022/03/13 12:31:58;;;;;;;19.43;15.87;;;;;;;21.12;19.68;98586.41;6995401;28;20231;-76
2022/03/13 12:35:20;;;;;;;21.83;16.23;;;;;;;21.79;18.90;98584.81;7000532;28;20318;-77
2022/03/13 12:38:43;;;;;;;20.27;16.43;;;;;;;20.96;19.84;98579.28;6999101;28;20203;-75
2022/03/13 12:42:05;;;;;;;19.97;16.20;;;;;;;21.99;18.75;98576.44;7025125;28;20718;-76
2022/03/13 12:45:28;;;;;;;19.67;15.80;;;;;;;21.04;19.90;98546.66;7021841;28;20221;-75
2022/03/13 12:48:55;;;;;;;20.93;16.13;;;;;;;21.90;19.35;98565.25;7000233;28;20270;-75
2022/03/13 12:52:17;;;;;;;21.60;15.67;;;;;;;22.38;19.27;98575.38;7017473;28;20195;-76
2022/03/13 12:55:39;;;;;;;20.07;16.63;;;;;;;21.70;19.55;98570.00;7017790;28;20249;-77
2022/03/13 12:59:00;;;;;;;18.07;14.77;;;;;;;20.69;20.31;98565.88;7018437;28;20234;-76
2022/03/13 13:02:25;;;;;;;18.20;14.90;;;;;;;21.65;20.22;98557.13;7026842;28;20213;-76
2022/03/13 13:05:50;;;;;;;19.27;14.97;;;;;;;21.37;19.71;98537.78;7027067;28;20237;-76
2022/03/13 13:09:26;;;;;;;21.93;15.20;;;;;;;21.43;19.51;98550.38;7027715;28;20204;-76
2022/03/13 13:12:47;;;;;;;19.50;15.23;;;;;;;20.70;20.85;98531.09;7012888;28;20285;-76
2022/03/13 13:16:09;;;;;;;19.20;15.20;;;;;;;21.45;19.61;98520.72;6999803;28;20217;-76
2022/03/13 13:19:37;;;;;;;19.47;15.13;;;;;;;21.36;19.67;98547.91;7016288;28;20681;-76
2022/03/13 13:23:09;;;;;;;20.90;16.27;;;;;;;21.13;19.96;98530.47;7012812;28;20308;-76
2022/03/13 13:26:42;;;;;;;20.27;15.47;;;;;;;21.52;20.25;98541.28;7027006;28;20206;-76
2022/03/13 13:30:23;;;;;;;19.37;14.40;;;;;;;21.12;19.43;98521.44;7027670;28;20204;-76
2022/03/13 13:33:44;;;;;;;20.13;15.13;;;;;;;20.54;20.48;98530.28;7026059;28;20315;-76
2022/03/13 13:37:10;;;;;;;20.47;15.13;;;;;;;20.35;20.96;98531.13;7027155;28;20348;-76
2022/03/13 13:40:35;;;;;;;18.73;13.67;;;;;;;21.06;20.08;98524.47;7027396;28;20290;-77
2022/03/13 13:43:57;;;;;;;19.73;15.67;;;;;;;20.65;20.99;98507.28;7027198;28;20285;-76
2022/03/13 13:47:24;;;;;;;20.93;14.93;;;;;;;21.02;19.71;98525.00;7026766;28;20344;-75
2022/03/13 13:50:46;;;;;;;17.10;14.30;;;;;;;21.40;19.75;98526.22;7013278;28;20205;-75
2022/03/13 13:54:18;;;;;;;17.63;13.13;;;;;;;21.48;18.96;98511.94;6998577;28;20230;-75
2022/03/13 13:57:39;;;;;;;16.87;12.80;;;;;;;21.31;19.03;98522.44;6998606;28;20199;-75
2022/03/13 14:01:26;;;;;;;18.97;14.63;;;;;;;21.40;19.63;98518.84;6998829;28;20208;-76
2022/03/13 14:04:50;;;;;;;17.20;13.17;;;;;;;21.82;19.48;98516.44;7016155;28;20604;-76
2022/03/13 14:08:11;;;;;;;16.63;13.13;;;;;;;20.28;20.41;98481.28;7026354;28;20209;-75
2022/03/13 14:11:35;;;;;;;17.47;14.10;;;;;;;21.37;19.72;98529.56;7029098;28;20299;-78
2022/03/13 14:14:56;;;;;;;16.23;13.43;;;;;;;21.27;19.80;98518.63;7019495;28;20637;-77
2022/03/13 14:18:18;;;;;;;18.17;14.30;;;;;;;22.25;19.58;98509.28;7020847;28;20770;-77
2022/03/13 14:21:40;;;;;;;18.40;14.57;;;;;;;21.13;20.38;98512.91;6998053;28;20210;-77
2022/03/13 14:25:02;;;;;;;20.83;15.17;;;;;;;21.77;19.77;98510.97;6997064;28;20230;-77
2022/03/13 14:28:25;;;;;;;17.50;14.50;;;;;;;22.32;19.50;98515.25;7002960;28;20197;-76
2022/03/13 14:31:46;;;;;;;17.77;14.87;;;;;;;21.85;19.98;98513.13;7024724;28;20207;-76
2022/03/13 14:35:09;;;;;;;22.73;16.23;;;;;;;21.52;20.59;98499.28;7020609;28;20264;-76
2022/03/13 14:38:30;;;;;;;19.07;15.67;;;;;;;21.69;19.99;98508.00;7025491;28;20201;-76
2022/03/13 14:41:52;;;;;;;19.07;15.10;;;;;;;22.23;20.01;98506.81;7025698;28;20201;-76
2022/03/13 14:45:15;;;;;;;19.50;15.53;;;;;;;22.28;20.42;98504.03;7025005;28;20321;-77
2022/03/13 14:48:37;;;;;;;20.70;15.47;;;;;;;22.65;19.69;98507.00;7019348;28;20236;-76
2022/03/13 14:51:59;;;;;;;20.57;15.60;;;;;;;22.74;19.19;98504.44;6996543;28;20660;-76
2022/03/13 14:55:20;;;;;;;19.07;15.63;;;;;;;22.40;19.03;98506.38;6998628;28;20227;-76
2022/03/13 14:58:42;;;;;;;18.57;15.17;;;;;;;21.08;20.05;98494.81;6997726;28;20687;-83
2022/03/13 15:02:05;;;;;;;19.80;15.47;;;;;;;21.29;20.21;98499.94;7014117;28;20212;-76
2022/03/13 15:05:27;;;;;;;19.77;15.77;;;;;;;21.66;19.78;98497.59;7001799;28;20232;-76
2022/03/13 15:08:48;;;;;;;20.70;15.47;;;;;;;21.25;20.50;98488.72;6997564;28;20366;-76
2022/03/13 15:12:11;;;;;;;18.27;14.47;;;;;;;20.90;20.61;98493.53;7023429;28;20190;-76
2022/03/13 15:15:33;;;;;;;18.07;14.77;;;;;;;21.60;20.03;98483.06;7024758;28;20240;-76
2022/03/13 15:18:56;;;;;;;18.77;14.97;;;;;;;21.43;19.85;98495.50;7024190;28;20295;-76
2022/03/13 15:22:18;;;;;;;16.87;14.00;;;;;;;21.67;19.28;98491.81;7023480;28;20212;-76
2022/03/13 15:25:39;;;;;;;18.50;13.63;;;;;;;21.09;20.17;98494.56;7022476;28;20225;-77
2022/03/13 15:29:01;;;;;;;17.07;13.03;;;;;;;22.28;19.05;98493.03;7019776;28;20219;-77
2022/03/13 15:32:22;;;;;;;18.07;14.57;;;;;;;22.20;18.97;98493.63;7023268;28;20220;-77
2022/03/13 15:35:45;;;;;;;16.57;13.40;;;;;;;21.45;19.55;98494.13;7022013;28;20781;-76
2022/03/13 15:39:07;;;;;;;15.83;12.40;;;;;;;20.94;19.31;98491.84;7024131;28;20318;-76
2022/03/13 15:42:29;;;;;;;15.77;12.70;;;;;;;21.24;19.18;98478.84;7023769;28;20251;-75
2022/03/13 15:45:51;;;;;;;16.23;12.63;;;;;;;21.10;19.20;98474.25;7023355;28;20231;-75
2022/03/13 15:49:13;;;;;;;15.00;12.67;;;;;;;21.46;18.54;98465.59;7023783;28;20194;-75
2022/03/13 15:52:36;;;;;;;15.00;12.03;;;;;;;21.51;19.14;98459.25;7022223;28;20212;-75
2022/03/13 15:55:57;;;;;;;14.30;12.07;;;;;;;21.27;19.04;98474.72;7023590;28;20245;-75
2022/03/13 15:59:19;;;;;;;16.53;12.60;;;;;;;21.01;19.36;98478.69;7014854;28;20345;-76
2022/03/13 16:02:41;;;;;;;17.33;13.97;;;;;;;21.22;19.09;98471.22;7011776;28;20208;-75
2022/03/13 16:06:02;;;;;;;17.27;13.37;;;;;;;21.82;18.81;98468.94;7022972;28;20238;-75
2022/03/13 16:09:25;;;;;;;16.23;12.80;;;;;;;21.67;19.15;98466.31;7023505;28;20302;-75
2022/03/13 16:12:47;;;;;;;16.07;12.13;;;;;;;21.40;18.85;98465.88;7022149;28;20214;-77
2022/03/13 16:16:09;;;;;;;17.70;12.77;;;;;;;20.91;19.72;98459.53;7003789;28;20230;-77
2022/03/13 16:19:34;;;;;;;16.27;11.97;;;;;;;20.84;19.88;98459.78;7028327;28;20236;-76
2022/03/13 16:22:56;;;;;;;17.80;12.47;;;;;;;21.08;19.69;98458.09;7027286;28;20652;-77
2022/03/13 16:26:19;;;;;;;18.13;13.53;;;;;;;20.64;20.02;98461.75;7024897;28;20207;-75
2022/03/13 16:29:40;;;;;;;17.57;12.67;;;;;;;20.60;19.96;98449.75;7029066;28;20208;-77
2022/03/13 16:33:03;;;;;;;16.53;13.00;;;;;;;20.59;20.14;98456.31;7018437;28;20314;-75
2022/03/13 16:36:25;;;;;;;15.93;12.87;;;;;;;20.47;20.29;98453.06;7011599;28;20259;-76
2022/03/13 16:39:47;;;;;;;15.93;12.97;;;;;;;20.73;20.32;98449.16;6999425;28;20205;-76
2022/03/13 16:43:10;;;;;;;15.80;12.33;;;;;;;21.17;19.83;98452.03;7015621;28;20221;-77
2022/03/13 16:46:31;;;;;;;15.20;12.67;;;;;;;20.67;20.20;98460.38;7028567;28;20295;-77
2022/03/13 16:49:53;;;;;;;15.93;12.50;;;;;;;20.51;20.19;98462.34;7027824;28;20209;-75
2022/03/13 16:53:16;;;;;;;16.50;12.63;;;;;;;20.14;20.68;98461.84;7027967;28;20226;-80
2022/03/13 16:56:40;;;;;;;15.53;12.87;;;;;;;20.74;20.21;98441.75;7026710;28;20235;-77
2022/03/13 17:00:04;;;;;;;16.30;12.03;;;;;;;20.01;20.73;98462.38;7012794;28;20208;-77
2022/03/13 17:03:26;;;;;;;15.17;11.97;;;;;;;20.54;20.37;98459.06;7027323;28;20647;-77
2022/03/13 17:06:48;;;;;;;14.73;11.50;;;;;;;20.07;20.81;98457.75;7027575;28;20275;-75
2022/03/13 17:10:11;;;;;;;16.30;12.20;;;;;;;20.02;20.77;98468.66;7027195;28;20203;-77
2022/03/13 17:13:33;;;;;;;16.13;12.10;;;;;;;19.72;21.37;98468.63;7027209;28;20221;-77
2022/03/13 17:16:56;;;;;;;12.63;10.83;;;;;;;19.43;21.73;98473.78;7027103;28;20639;-77
2022/03/13 17:20:18;;;;;;;14.10;10.77;;;;;;;19.28;21.98;98481.13;7027691;28;20719;-77
2022/03/13 17:23:40;;;;;;;15.23;11.37;;;;;;;19.51;21.66;98488.84;7024907;28;20236;-77
2022/03/13 17:27:02;;;;;;;12.03;10.63;;;;;;;19.46;21.81;98489.63;7027272;28;20212;-77
2022/03/13 17:30:25;;;;;;;13.20;10.90;;;;;;;19.23;22.18;98484.63;7027037;28;20281;-77
2022/03/13 17:33:48;;;;;;;13.97;10.50;;;;;;;19.23;22.04;98497.50;7024250;28;20229;-76
2022/03/13 17:37:10;;;;;;;16.77;11.17;;;;;;;18.52;23.02;98498.19;7021802;28;20199;-76
2022/03/13 17:40:32;;;;;;;12.47;11.13;;;;;;;18.60;22.78;98493.06;6999112;28;20684;-76
2022/03/13 17:43:53;;;;;;;20.93;10.50;;;;;;;18.37;23.29;98509.81;7006300;28;20695;-77
2022/03/13 17:47:16;;;;;;;12.90;10.17;;;;;;;18.27;23.41;98500.72;7023211;28;20217;-77
2022/03/13 17:50:39;;;;;;;14.03;10.23;;;;;;;18.21;23.29;98490.84;7025100;28;20351;-76
2022/03/13 17:54:06;;;;;;;12.43;10.10;;;;;;;18.33;23.57;98500.50;7004956;28;20738;-77
2022/03/13 17:57:28;;;;;;;12.83;10.07;;;;;;;18.27;23.65;98509.72;6998624;28;20207;-77
2022/03/13 18:00:52;;;;;;;14.27;10.80;;;;;;;18.72;23.28;98504.59;6998232;28;20221;-76
2022/03/13 18:04:20;;;;;;;15.17;10.60;;;;;;;18.83;24.77;98516.41;6997821;28;20315;-76
2022/03/13 18:07:52;;;;;;;14.83;10.87;;;;;;;18.17;25.97;98514.28;6998592;28;20185;-76
2022/03/13 18:11:33;;;;;;;12.87;9.50;;;;;;;17.24;27.71;98525.56;6998296;28;20264;-76
2022/03/13 18:15:00;;;;;;;13.43;9.43;;;;;;;16.60;28.68;98509.16;7005530;28;20220;-76
2022/03/13 18:18:32;;;;;;;14.67;8.80;;;;;;;16.43;29.26;98520.09;7025929;28;20232;-76
2022/03/13 18:21:54;;;;;;;12.30;9.00;;;;;;;16.26;29.57;98538.28;7025193;28;20197;-76
2022/03/13 18:25:17;;;;;;;13.57;8.93;;;;;;;15.54;30.74;98544.63;7025160;28;20220;-77
2022/03/13 18:28:39;;;;;;;11.20;8.50;;;;;;;14.92;31.82;98552.81;7025380;28;20201;-76
2022/03/13 18:32:00;;;;;;;11.90;9.20;;;;;;;14.71;31.84;98528.97;7025134;28;20299;-76
2022/03/13 18:35:23;;;;;;;13.80;8.70;;;;;;;14.97;31.70;98547.47;7023682;28;20240;-76
2022/03/13 18:38:44;;;;;;;13.97;9.13;;;;;;;15.06;31.58;98535.19;7024961;28;20208;-76
2022/03/13 18:42:08;;;;;;;16.43;10.03;;;;;;;15.19;31.23;98543.88;7024789;28;20303;-75
2022/03/13 18:45:29;;;;;;;13.07;9.50;;;;;;;15.08;31.50;98562.91;7024687;28;20230;-77
2022/03/13 18:48:52;;;;;;;13.37;8.60;;;;;;;14.84;31.80;98566.72;7013531;28;20201;-76
2022/03/13 18:52:14;;;;;;;11.70;8.30;;;;;;;14.67;31.83;98563.06;7001205;28;20201;-77
2022/03/13 18:55:35;;;;;;;13.30;8.27;;;;;;;14.50;32.26;98575.69;7025151;28;20282;-77
2022/03/13 18:58:58;;;;;;;11.80;8.57;;;;;;;14.25;32.85;98570.50;7025127;28;20210;-76
2022/03/13 19:02:21;;;;;;;14.13;8.90;;;;;;;13.49;33.80;98579.53;7023726;28;20250;-77
2022/03/13 19:05:43;;;;;;;13.27;9.33;;;;;;;13.55;33.81;98587.59;6997204;28;20237;-76
2022/03/13 19:09:05;;;;;;;9.93;7.67;;;;;;;13.67;33.13;98587.63;6996637;28;20198;-76
2022/03/13 19:12:26;;;;;;;15.23;9.70;;;;;;;13.66;33.19;98575.97;7014029;28;20232;-78
2022/03/13 19:15:49;;;;;;;12.20;8.93;;;;;;;13.56;33.60;98583.81;7011899;28;20235;-76
2022/03/13 19:19:12;;;;;;;13.00;9.47;;;;;;;13.48;33.55;98597.69;6996544;28;20203;-76
2022/03/13 19:22:34;;;;;;;13.77;9.13;;;;;;;13.25;33.84;98594.88;6995391;28;20206;-79
2022/03/13 19:25:56;;;;;;;12.67;9.30;;;;;;;13.76;31.19;98597.09;7009664;28;20220;-78
2022/03/13 19:29:18;;;;;;;12.70;8.00;;;;;;;13.67;32.14;98602.00;7024372;28;20203;-79
2022/03/13 19:32:41;;;;;;;10.70;8.37;;;;;;;13.37;33.53;98605.75;7022937;28;20239;-78
2022/03/13 19:36:03;;;;;;;11.10;7.27;;;;;;;13.35;33.70;98607.88;7023481;28;20220;-79
2022/03/13 19:39:24;;;;;;;9.90;8.00;;;;;;;13.24;33.88;98617.59;7015911;28;20335;-78
2022/03/13 19:42:46;;;;;;;12.77;8.63;;;;;;;13.15;33.86;98620.81;7013096;28;20234;-78
2022/03/13 19:46:08;;;;;;;11.87;8.17;;;;;;;13.25;33.27;98626.50;7022897;28;20209;-78
2022/03/13 19:49:33;;;;;;;11.13;8.30;;;;;;;13.25;33.62;98611.13;7023947;28;20562;-78
2022/03/13 19:52:55;;;;;;;11.10;9.00;;;;;;;13.05;33.94;98632.16;7023293;28;20213;-78
2022/03/13 19:56:17;;;;;;;11.60;8.40;;;;;;;12.81;34.68;98621.38;7023713;28;20835;-78
2022/03/13 19:59:38;;;;;;;12.47;8.40;;;;;;;12.37;35.56;98629.66;7023515;28;20565;-78
2022/03/13 20:03:00;;;;;;;13.37;9.40;;;;;;;12.61;35.12;98623.41;7023206;28;20246;-77
2022/03/13 20:06:23;;;;;;;13.33;9.20;;;;;;;12.39;35.43;98633.00;7023301;28;20203;-79
2022/03/13 20:09:45;;;;;;;14.63;9.97;;;;;;;12.37;34.89;98630.50;7034915;28;20206;-79
2022/03/13 20:13:07;;;;;;;18.47;10.63;;;;;;;12.49;35.17;98633.31;7031517;28;20222;-79
2022/03/13 20:16:29;;;;;;;14.00;10.33;;;;;;;12.42;35.13;98646.06;7026701;28;20222;-78
2022/03/13 20:19:50;;;;;;;17.33;10.33;;;;;;;12.38;35.18;98648.38;7028680;28;20218;-78
2022/03/13 20:23:13;;;;;;;13.33;10.60;;;;;;;12.16;35.66;98638.16;7026973;28;20611;-78
2022/03/13 20:26:35;;;;;;;14.97;11.07;;;;;;;11.89;36.06;98642.06;7026893;28;20344;-78
2022/03/13 20:29:56;;;;;;;13.43;9.83;;;;;;;12.31;35.57;98657.59;7028318;28;20241;-78
2022/03/13 20:33:18;;;;;;;13.47;10.10;;;;;;;12.45;35.45;98654.56;7027755;28;20232;-78
2022/03/13 20:36:42;;;;;;;12.90;9.77;;;;;;;12.50;35.04;98656.59;7026307;28;20579;-78
2022/03/13 20:40:07;;;;;;;16.23;10.80;;;;;;;12.26;35.58;98670.91;7028144;28;20569;-77
2022/03/13 20:43:29;;;;;;;12.13;8.53;;;;;;;12.24;35.64;98678.44;7027162;28;20234;-79
2022/03/13 20:46:51;;;;;;;11.87;8.93;;;;;;;11.67;36.20;98644.28;7028688;28;20561;-78
2022/03/13 20:50:13;;;;;;;12.10;9.13;;;;;;;11.92;36.51;98690.28;7028297;28;20293;-78
2022/03/13 20:53:35;;;;;;;11.57;8.73;;;;;;;11.90;36.31;98700.47;7026002;28;20582;-78
2022/03/13 20:56:58;;;;;;;11.07;8.43;;;;;;;12.05;35.79;98711.81;6999920;28;20226;-78
2022/03/13 21:00:21;;;;;;;12.07;9.20;;;;;;;11.96;36.30;98723.91;7003193;28;20215;-81
2022/03/13 21:03:42;;;;;;;14.13;8.70;;;;;;;11.89;36.20;98733.94;7002538;28;20597;-80
2022/03/13 21:07:04;;;;;;;12.87;9.47;;;;;;;11.66;36.89;98728.22;7007983;28;20280;-81
2022/03/13 21:10:26;;;;;;;13.73;9.90;;;;;;;11.53;36.90;98712.03;7036082;28;20289;-79
2022/03/13 21:13:52;;;;;;;19.97;9.43;;;;;;;11.51;36.94;98724.91;7036621;28;20694;-79
2022/03/13 21:17:14;;;;;;;14.07;9.27;;;;;;;11.41;37.09;98735.31;7031967;28;20248;-78
2022/03/13 21:20:36;;;;;;;12.40;8.80;;;;;;;11.13;37.62;98726.66;7030969;28;20209;-78
2022/03/13 21:23:57;;;;;;;14.30;8.97;;;;;;;11.31;37.23;98724.13;7030188;28;20369;-78
2022/03/13 21:27:19;;;;;;;13.97;8.70;;;;;;;11.63;36.66;98734.06;7030553;28;20218;-78
2022/03/13 21:30:42;;;;;;;13.83;9.23;;;;;;;11.72;36.61;98730.06;7031119;28;20232;-78
2022/03/13 21:34:05;;;;;;;14.67;10.00;;;;;;;11.33;37.81;98720.19;7028636;28;20260;-78
2022/03/13 21:37:27;;;;;;;14.23;9.87;;;;;;;11.34;37.89;98729.94;7032077;28;20226;-79
2022/03/13 21:40:49;;;;;;;15.60;10.70;;;;;;;11.33;37.68;98738.25;7035146;28;20243;-79
2022/03/13 21:44:12;;;;;;;18.47;12.53;;;;;;;11.21;38.22;98726.47;7034123;28;20260;-78
2022/03/13 21:47:35;;;;;;;17.37;12.07;;;;;;;11.00;38.69;98716.75;7033184;28;20212;-78
2022/03/13 21:50:57;;;;;;;13.87;10.23;;;;;;;11.16;38.05;98724.38;7032930;28;20216;-79
2022/03/13 21:54:19;;;;;;;13.90;9.10;;;;;;;10.91;38.29;98739.56;7032534;28;20249;-79
2022/03/13 21:57:41;;;;;;;15.47;9.47;;;;;;;10.83;38.83;98731.69;7031845;28;20238;-79
2022/03/13 22:01:02;;;;;;;13.33;9.10;;;;;;;11.05;38.11;98738.50;7030329;28;20254;-79
2022/03/13 22:04:25;;;;;;;14.10;8.70;;;;;;;11.10;38.07;98727.09;7031470;28;20245;-78
2022/03/13 22:07:47;;;;;;;11.00;8.53;;;;;;;11.11;37.73;98734.97;7035878;28;20211;-79
2022/03/13 22:11:10;;;;;;;13.67;9.23;;;;;;;11.48;37.39;98733.44;7034262;28;20206;-78
2022/03/13 22:14:32;;;;;;;13.70;9.27;;;;;;;11.11;38.53;98734.97;7031744;28;20224;-79
2022/03/13 22:17:55;;;;;;;11.50;8.07;;;;;;;10.80;38.82;98742.88;7034400;28;20690;-78
2022/03/13 22:21:18;;;;;;;13.87;8.63;;;;;;;10.27;39.89;98745.75;7036421;28;20209;-79
2022/03/13 22:24:40;;;;;;;12.87;8.63;;;;;;;9.98;40.06;98738.00;7034535;28;20264;-79
2022/03/13 22:28:01;;;;;;;10.90;8.23;;;;;;;10.74;38.72;98735.63;7035335;28;20255;-79
2022/03/13 22:31:23;;;;;;;12.20;9.17;;;;;;;10.74;38.76;98738.31;7036065;28;20207;-79
2022/03/13 22:34:45;;;;;;;11.63;8.53;;;;;;;10.44;39.87;98742.47;7034110;28;20361;-79
2022/03/13 22:38:08;;;;;;;11.17;8.80;;;;;;;10.34;39.59;98739.31;7036190;28;20218;-79
2022/03/13 22:41:29;;;;;;;12.30;8.63;;;;;;;10.44;39.08;98728.97;7035980;28;20202;-79
2022/03/13 22:44:51;;;;;;;12.20;8.40;;;;;;;10.85;37.41;98745.78;7036568;28;20257;-79
2022/03/13 22:48:12;;;;;;;12.90;8.50;;;;;;;11.11;37.06;98748.44;7037013;28;20218;-79
2022/03/13 22:51:34;;;;;;;13.00;9.83;;;;;;;10.63;38.01;98730.03;7036088;28;20228;-79
2022/03/13 22:54:57;;;;;;;13.90;9.27;;;;;;;11.00;38.18;98768.00;7033128;28;20227;-79
2022/03/13 22:58:22;;;;;;;13.63;9.80;;;;;;;11.09;37.62;98763.22;7033940;28;20226;-79